الصفحة الرئيسية
METAR-TAF:

METAR-TAF

مطار :

مطار غران كناريا

كناريا الكبرى, إسبانيا

دائرة عرض: 27-56N, خط طول: 015-23W, ارتفاع: 23 متر

مراقبة الطقس الحالي

تاريخ ووقت الإصدار 37 دقيقة قبل الساعة 09:00UTC
ريح 15 عقدة من الشمال
درجة الحرارة 20°درجة مئوية
الرطوبة 64%
ضغط 1027 hPa
الرؤية 10 كم أو أكثر
غيوم متفرقة على ارتفاع 2500 قدم

METAR: GCLP 140900Z 01015KT 9999 SCT025 20/13 Q1027 NOSIG

زمن: 09:37 (09:37 UTC)

توقعات

تاريخ ووقت الإصدار 1ساعة و 37 دقيقة قبل الساعة 08:00UTC
التوقعات صالحة من14 الساعة 09 UTC إلى 15 الساعة 09 UTC
ريح 17 عقدة من الشمال
الرؤية 10 كم أو أكثر
غيوم قليلة على ارتفاع 3500 قدم

TAF: GCLP 140800Z 1409/1509 01017KT 9999 FEW035 TX22/1413Z TN18/1506Z

أرصاد الطقس والتوقعات من أكثر من 4000 مطار (تقارير الطقس للمطار METAR والتنبؤ بالطقس بالمطارTAF).

المحطات المتاحة هي النقط الصفراء والحمراء على الخريطة.

حرك المؤشر فوق النقطة لمعرفة اسم المحطة.

ثم انقر لمعرفة أرصاد وتوقعات الطقس.

لتغيير الخارطة: اضغط على الأزرار الخضراء مع رمز الصليب الأسود للتكبير. على الزر الأخضر مع شرطة للتصغير، أو على الأسهم الخضراء للخرائط المجاورة.


METAR-TAF: